Time;durP1;ratioP1;P1;durP2;ratioP2;P2;SDS_P1;SDS_P2;PMS_P1;PMS_P2;Temp;Humidity;BMP_temperature;BMP_pressure;BME280_temperature;BME280_humidity;BME280_pressure;Samples;Min_cycle;Max_cycle;Signal;HPM_P1;HPM_P2
2022/10/07 00:01:18;;;;;;;8.63;4.75;;;;;;;11.07;58.86;96558.09;4987369;28;20026;-81
2022/10/07 00:03:43;;;;;;;9.73;4.50;;;;;;;11.02;59.13;96557.72;4954158;28;20099;-80
2022/10/07 00:06:19;;;;;;;8.40;4.53;;;;;;;10.93;59.72;96551.44;4987800;28;20105;-80
2022/10/07 00:08:49;;;;;;;9.35;4.50;;;;;;;10.86;59.31;96560.09;4954296;28;20101;-80
2022/10/07 00:11:16;;;;;;;9.40;4.60;;;;;;;10.79;59.46;96550.94;4954151;28;20026;-79
2022/10/07 00:13:43;;;;;;;10.18;5.65;;;;;;;10.68;60.14;96557.38;4969675;28;20026;-78
2022/10/07 00:16:13;;;;;;;7.00;4.20;;;;;;;10.67;60.30;96552.16;4954350;28;20117;-80
2022/10/07 00:18:40;;;;;;;8.50;3.88;;;;;;;10.65;60.11;96552.31;4987430;28;20109;-79
2022/10/07 00:21:06;;;;;;;8.20;3.92;;;;;;;10.60;60.34;96549.22;4969776;28;20030;-79
2022/10/07 00:23:32;;;;;;;6.78;4.00;;;;;;;10.55;61.28;96546.13;4954662;28;20034;-79
2022/10/07 00:26:01;;;;;;;7.57;4.40;;;;;;;10.56;60.80;96545.16;4969383;28;20027;-79
2022/10/07 00:28:27;;;;;;;6.70;4.30;;;;;;;10.55;60.66;96548.81;4954508;28;20561;-79
2022/10/07 00:31:00;;;;;;;8.18;4.40;;;;;;;10.49;60.94;96543.03;4969532;28;20117;-79
2022/10/07 00:33:26;;;;;;;9.80;4.32;;;;;;;10.49;61.36;96544.91;4954024;28;20030;-81
2022/10/07 00:35:51;;;;;;;6.82;4.47;;;;;;;10.47;61.09;96538.84;4969978;28;20022;-80
2022/10/07 00:38:16;;;;;;;9.98;4.70;;;;;;;10.43;62.26;96540.94;4969325;28;20033;-80
2022/10/07 00:40:42;;;;;;;8.73;4.40;;;;;;;10.46;62.04;96540.66;4954103;28;20030;-80
2022/10/07 00:43:21;;;;;;;7.10;4.18;;;;;;;10.45;61.54;96536.28;4986763;28;20015;-80
2022/10/07 00:45:46;;;;;;;6.35;3.95;;;;;;;10.32;62.13;96535.75;4987704;28;20117;-80
2022/10/07 00:48:14;;;;;;;6.90;4.40;;;;;;;10.39;62.05;96539.56;4952945;28;20030;-80
2022/10/07 00:50:40;;;;;;;6.68;3.97;;;;;;;10.43;61.70;96535.56;4954636;28;20050;-80
2022/10/07 00:53:06;;;;;;;7.82;4.30;;;;;;;10.43;61.08;96532.06;4969585;28;20464;-80
2022/10/07 00:55:31;;;;;;;8.23;4.25;;;;;;;10.31;61.84;96526.03;4986258;28;20490;-80
2022/10/07 00:57:59;;;;;;;9.73;4.55;;;;;;;10.35;61.57;96532.81;4969812;28;20033;-80
2022/10/07 01:00:24;;;;;;;6.88;4.20;;;;;;;10.27;61.77;96529.00;4953386;28;20026;-79
2022/10/07 01:02:50;;;;;;;7.95;4.65;;;;;;;10.26;61.45;96527.34;4987764;28;20030;-79
2022/10/07 01:05:16;;;;;;;9.30;3.97;;;;;;;10.26;62.15;96527.34;4952803;28;20076;-79
2022/10/07 01:07:42;;;;;;;5.57;3.92;;;;;;;10.27;61.30;96530.84;4969993;28;20493;-80
2022/10/07 01:10:10;;;;;;;7.35;4.22;;;;;;;10.15;62.08;96530.19;4953329;28;20486;-79
2022/10/07 01:12:45;;;;;;;7.03;3.90;;;;;;;10.17;61.58;96517.50;4938186;28;20037;-80
2022/10/07 01:15:16;;;;;;;11.93;4.38;;;;;;;10.14;62.00;96524.00;4970094;28;20027;-80
2022/10/07 01:17:52;;;;;;;7.03;4.38;;;;;;;10.17;61.81;96522.00;4953752;28;20562;-80
2022/10/07 01:20:43;;;;;;;5.55;4.00;;;;;;;9.99;62.68;96515.59;4954315;28;20039;-80
2022/10/07 01:23:31;;;;;;;8.13;4.32;;;;;;;10.04;62.48;96527.69;4954771;28;20393;-79
2022/10/07 01:26:12;;;;;;;7.00;4.45;;;;;;;10.01;62.75;96523.50;4969912;28;20109;-79
2022/10/07 01:28:58;;;;;;;7.97;5.03;;;;;;;9.98;63.08;96527.28;4987034;28;20529;-79
2022/10/07 01:31:32;;;;;;;7.72;4.50;;;;;;;10.01;63.08;96527.00;4968419;28;20041;-80
2022/10/07 01:33:57;;;;;;;10.43;4.95;;;;;;;9.91;63.23;96507.44;4937940;28;20169;-80
2022/10/07 01:36:23;;;;;;;8.18;4.95;;;;;;;9.98;63.16;96523.75;4952805;28;20023;-80
2022/10/07 01:38:52;;;;;;;9.45;4.78;;;;;;;9.94;63.19;96523.22;4953219;28;20425;-80
2022/10/07 01:41:18;;;;;;;11.07;6.13;;;;;;;10.04;63.11;96522.34;4953079;28;20022;-79
2022/10/07 01:43:45;;;;;;;9.88;5.47;;;;;;;10.06;62.64;96517.69;4968882;28;20038;-79
2022/10/07 01:46:14;;;;;;;9.88;5.90;;;;;;;9.97;62.64;96520.25;4953253;28;20509;-80
2022/10/07 01:48:40;;;;;;;12.32;5.68;;;;;;;9.83;63.17;96516.22;4968246;28;20062;-80
2022/10/07 01:51:07;;;;;;;9.32;5.78;;;;;;;9.87;63.58;96522.97;4953539;28;20030;-80
2022/10/07 01:53:54;;;;;;;12.77;6.55;;;;;;;9.95;63.76;96524.06;4952488;28;20054;-80
2022/10/07 01:56:53;;;;;;;10.35;6.72;;;;;;;9.96;63.66;96521.22;4986562;28;20417;-80
2022/10/07 01:59:28;;;;;;;12.07;6.25;;;;;;;10.01;63.11;96520.81;4986993;28;20040;-80
2022/10/07 02:02:05;;;;;;;11.05;5.63;;;;;;;9.99;63.04;96523.63;4985496;28;20528;-80
2022/10/07 02:04:55;;;;;;;12.18;6.32;;;;;;;9.99;63.03;96520.97;4970081;28;20026;-80
2022/10/07 02:07:46;;;;;;;8.90;6.22;;;;;;;9.88;62.75;96515.78;4987861;28;20030;-79
2022/10/07 02:10:16;;;;;;;10.82;5.90;;;;;;;9.88;62.59;96519.28;4974853;28;20493;-79
2022/10/07 02:12:43;;;;;;;10.70;6.25;;;;;;;9.88;62.33;96518.47;4957029;28;20521;-79
2022/10/07 02:15:18;;;;;;;10.52;5.95;;;;;;;9.82;62.52;96516.38;4971883;28;20065;-79
2022/10/07 02:17:47;;;;;;;10.30;5.72;;;;;;;9.84;62.71;96517.03;4957478;28;20022;-79
2022/10/07 02:20:12;;;;;;;11.93;5.47;;;;;;;9.85;62.48;96524.09;4972109;28;20105;-79
2022/10/07 02:22:37;;;;;;;12.73;5.88;;;;;;;9.84;62.38;96522.41;4956321;28;20506;-80
2022/10/07 02:25:03;;;;;;;9.15;5.00;;;;;;;9.80;62.86;96515.66;4956260;28;20133;-80
2022/10/07 02:27:31;;;;;;;10.70;5.20;;;;;;;9.78;63.99;96529.19;4971635;28;20035;-79
2022/10/07 02:30:00;;;;;;;10.38;5.88;;;;;;;9.73;63.07;96526.94;4956746;28;20052;-79
2022/10/07 02:32:25;;;;;;;8.32;5.32;;;;;;;9.74;63.01;96534.00;4955801;28;20022;-80
2022/10/07 02:34:53;;;;;;;10.15;5.72;;;;;;;9.60;63.25;96529.09;4956653;28;20097;-80
2022/10/07 02:37:23;;;;;;;9.63;5.60;;;;;;;9.68;62.44;96537.25;4955868;28;20030;-80
2022/10/07 02:39:49;;;;;;;9.45;5.65;;;;;;;9.66;62.50;96536.53;4972284;28;20034;-80
2022/10/07 02:42:25;;;;;;;10.38;5.15;;;;;;;9.67;62.35;96540.06;4955997;28;20425;-79
2022/10/07 02:45:16;;;;;;;7.95;5.07;;;;;;;9.67;62.65;96540.94;4971098;28;20041;-79
2022/10/07 02:47:48;;;;;;;12.65;5.63;;;;;;;9.54;62.89;96533.19;4941867;28;20137;-79
2022/10/07 02:50:16;;;;;;;13.45;6.18;;;;;;;9.56;62.78;96533.06;4955571;28;20037;-79
2022/10/07 02:52:42;;;;;;;13.05;5.07;;;;;;;9.56;62.65;96530.38;4955925;28;20030;-80
2022/10/07 02:55:09;;;;;;;9.00;5.32;;;;;;;9.51;62.61;96539.66;4971439;28;20049;-79
2022/10/07 02:57:45;;;;;;;17.35;5.55;;;;;;;9.50;62.89;96531.78;4971627;28;20066;-80
2022/10/07 03:00:11;;;;;;;8.10;5.05;;;;;;;9.52;62.27;96536.00;4955700;28;20034;-79
2022/10/07 03:02:41;;;;;;;19.27;5.07;;;;;;;9.47;62.32;96532.91;4971258;28;20030;-80
2022/10/07 03:05:07;;;;;;;9.73;4.85;;;;;;;9.49;62.78;96536.31;4956070;28;20041;-81
2022/10/07 03:07:34;;;;;;;7.65;3.88;;;;;;;9.47;63.04;96534.75;4954890;28;20061;-79
2022/10/07 03:09:59;;;;;;;9.07;3.75;;;;;;;9.43;62.83;96541.38;4971605;28;20033;-79
2022/10/07 03:12:25;;;;;;;6.85;4.03;;;;;;;9.40;62.55;96542.50;4955696;28;20023;-78
2022/10/07 03:14:50;;;;;;;10.32;4.20;;;;;;;9.31;63.09;96543.34;4989002;28;20034;-79
2022/10/07 03:17:16;;;;;;;8.00;4.40;;;;;;;9.33;63.58;96544.06;4955132;28;20033;-79
2022/10/07 03:19:42;;;;;;;6.78;3.97;;;;;;;9.33;63.65;96541.38;4970862;28;20095;-80
2022/10/07 03:22:08;;;;;;;10.75;6.10;;;;;;;9.27;63.52;96540.09;4971882;28;20047;-79
2022/10/07 03:24:33;;;;;;;11.70;5.80;;;;;;;9.30;63.11;96547.03;4954198;28;20034;-80
2022/10/07 03:26:58;;;;;;;11.00;5.53;;;;;;;9.23;63.42;96536.88;4988519;28;20509;-79
2022/10/07 03:29:25;;;;;;;9.55;5.30;;;;;;;9.20;63.60;96534.50;4970659;28;20037;-79
2022/10/07 03:31:53;;;;;;;10.73;5.68;;;;;;;9.11;64.13;96529.97;4988593;28;20073;-79
2022/10/07 03:34:19;;;;;;;8.88;5.55;;;;;;;9.17;63.92;96525.88;4971131;28;20118;-81
2022/10/07 03:36:44;;;;;;;9.07;5.32;;;;;;;9.22;63.29;96532.50;4970825;28;20026;-79
2022/10/07 03:39:09;;;;;;;12.50;6.32;;;;;;;9.18;62.76;96523.06;4971168;28;20034;-80
2022/10/07 03:41:35;;;;;;;15.15;6.82;;;;;;;9.24;63.00;96530.53;4987862;28;20026;-82
2022/10/07 03:44:01;;;;;;;10.73;6.07;;;;;;;9.23;62.72;96526.19;4988880;28;20101;-80
2022/10/07 03:46:26;;;;;;;12.57;5.43;;;;;;;9.22;61.40;96524.47;4970074;28;20142;-80
2022/10/07 03:48:52;;;;;;;10.82;5.80;;;;;;;9.17;61.29;96521.38;4970902;28;20034;-80
2022/10/07 03:51:17;;;;;;;12.13;5.88;;;;;;;9.16;62.02;96522.34;4987706;28;20038;-79
2022/10/07 03:53:43;;;;;;;13.40;5.38;;;;;;;9.11;63.05;96525.47;4970888;28;20042;-79
2022/10/07 03:56:08;;;;;;;11.95;5.85;;;;;;;9.11;62.84;96528.13;4973724;28;20026;-79
2022/10/07 03:58:34;;;;;;;11.80;6.85;;;;;;;9.13;62.81;96531.53;4970164;28;20030;-80
2022/10/07 04:01:04;;;;;;;15.45;6.97;;;;;;;9.14;63.65;96529.69;4971359;28;20023;-79
2022/10/07 04:03:29;;;;;;;11.10;5.88;;;;;;;9.14;64.28;96527.84;4954280;28;20033;-79
2022/10/07 04:05:59;;;;;;;12.73;7.20;;;;;;;9.17;63.87;96529.41;4988638;28;20042;-80
2022/10/07 04:08:27;;;;;;;14.95;6.57;;;;;;;9.18;63.65;96533.78;4970791;28;20030;-80
2022/10/07 04:10:52;;;;;;;12.23;6.75;;;;;;;9.19;63.83;96534.63;4970230;28;20116;-80
2022/10/07 04:13:18;;;;;;;13.27;7.22;;;;;;;9.17;63.97;96532.09;4953969;28;20097;-79
2022/10/07 04:15:43;;;;;;;12.25;6.32;;;;;;;9.11;63.65;96532.63;4970160;28;20516;-79
2022/10/07 04:18:09;;;;;;;18.40;9.13;;;;;;;8.93;64.22;96536.00;4970533;28;20038;-79
2022/10/07 04:20:36;;;;;;;21.05;11.57;;;;;;;9.01;63.60;96538.84;4953210;28;20030;-79
2022/10/07 04:23:02;;;;;;;20.95;10.75;;;;;;;9.03;63.40;96531.53;4954789;28;20038;-81
2022/10/07 04:25:33;;;;;;;15.80;9.32;;;;;;;9.07;62.85;96539.25;4954373;28;20498;-78
2022/10/07 04:27:59;;;;;;;16.10;7.60;;;;;;;9.09;61.66;96529.28;4988188;28;20080;-78
2022/10/07 04:30:26;;;;;;;12.05;6.68;;;;;;;9.02;61.05;96528.97;4968911;28;20431;-80
2022/10/07 04:32:51;;;;;;;21.15;7.22;;;;;;;9.02;60.85;96529.84;4969944;28;20030;-79
2022/10/07 04:35:18;;;;;;;19.90;9.20;;;;;;;9.02;61.93;96523.63;4970181;28;20018;-79
2022/10/07 04:37:43;;;;;;;18.55;9.73;;;;;;;8.95;62.26;96522.47;4953442;28;20034;-80
2022/10/07 04:40:09;;;;;;;15.93;8.82;;;;;;;8.92;63.10;96526.28;4987844;28;20061;-79
2022/10/07 04:45:19;;;;;;;14.75;6.10;;;;;;;8.96;60.92;96525.06;4987866;28;20065;-79
2022/10/07 04:47:45;;;;;;;13.18;6.20;;;;;;;8.85;61.08;96523.31;4938423;28;20379;-79
2022/10/07 04:50:11;;;;;;;12.55;6.53;;;;;;;8.97;61.32;96537.44;4970218;28;20026;-80
2022/10/07 04:52:43;;;;;;;14.13;6.28;;;;;;;8.97;61.36;96540.09;4954145;28;20028;-79
2022/10/07 04:55:11;;;;;;;13.27;5.88;;;;;;;8.95;62.31;96544.75;4953717;28;20065;-80
2022/10/07 04:57:37;;;;;;;13.68;5.43;;;;;;;9.05;61.86;96539.41;4969972;28;20030;-79
2022/10/07 05:00:04;;;;;;;15.30;5.05;;;;;;;9.09;62.19;96538.13;4953115;28;20057;-79
2022/10/07 05:02:29;;;;;;;11.15;5.32;;;;;;;9.14;62.39;96541.22;4969588;28;20476;-79
2022/10/07 05:04:55;;;;;;;13.13;5.30;;;;;;;9.22;62.39;96540.53;4969262;28;20494;-80
2022/10/07 05:07:20;;;;;;;8.45;5.05;;;;;;;9.21;62.80;96538.84;4969444;28;20036;-79
2022/10/07 05:09:45;;;;;;;8.00;4.72;;;;;;;9.19;62.81;96551.50;4986785;28;20022;-79
2022/10/07 05:12:11;;;;;;;12.85;4.55;;;;;;;9.37;61.62;96550.81;4986872;28;20537;-80
2022/10/07 05:14:36;;;;;;;11.98;4.50;;;;;;;9.48;61.54;96555.19;4970031;28;20038;-80
2022/10/07 05:17:03;;;;;;;6.38;4.35;;;;;;;9.58;61.20;96549.81;4986448;28;20027;-80
2022/10/07 05:19:29;;;;;;;8.48;4.68;;;;;;;9.67;61.72;96548.97;4970006;28;20076;-80
2022/10/07 05:21:54;;;;;;;13.27;5.57;;;;;;;9.64;61.02;96551.94;4952982;28;20453;-80
2022/10/07 05:24:20;;;;;;;6.97;4.72;;;;;;;9.72;61.29;96560.06;4953742;28;20030;-80
2022/10/07 05:26:45;;;;;;;8.43;4.70;;;;;;;9.86;62.03;96552.59;4936992;28;20033;-81
2022/10/07 05:29:10;;;;;;;9.13;4.43;;;;;;;10.00;61.60;96556.63;4969509;28;20030;-81
2022/10/07 05:31:36;;;;;;;10.05;4.90;;;;;;;10.14;60.76;96557.97;4986951;28;20046;-81
2022/10/07 05:34:01;;;;;;;10.75;4.72;;;;;;;10.26;59.90;96554.16;4968786;28;20457;-80
2022/10/07 05:36:27;;;;;;;8.05;4.30;;;;;;;10.38;59.86;96556.66;4987291;28;20034;-80
2022/10/07 05:38:56;;;;;;;9.48;4.50;;;;;;;10.53;59.81;96558.88;4985933;28;20461;-80
2022/10/07 05:41:22;;;;;;;8.55;4.57;;;;;;;10.59;59.66;96556.41;4988397;28;20029;-81
2022/10/07 05:43:47;;;;;;;8.80;4.88;;;;;;;10.74;59.87;96563.97;4956590;28;20034;-81
2022/10/07 05:46:14;;;;;;;9.57;4.90;;;;;;;10.87;59.51;96567.13;4990335;28;20505;-80
2022/10/07 05:48:39;;;;;;;9.60;4.35;;;;;;;11.04;59.14;96567.31;4956621;28;20105;-80
2022/10/07 05:51:06;;;;;;;9.65;5.30;;;;;;;11.13;58.80;96565.56;4956633;28;20030;-80
2022/10/07 05:53:32;;;;;;;10.18;5.20;;;;;;;11.32;58.88;96566.38;4973565;28;20100;-80
2022/10/07 05:55:57;;;;;;;13.05;5.10;;;;;;;11.38;59.27;96560.44;4955944;28;20030;-80
2022/10/07 05:58:23;;;;;;;7.78;4.93;;;;;;;11.53;59.13;96581.34;4957435;28;20121;-83
2022/10/07 06:00:53;;;;;;;12.68;4.93;;;;;;;11.68;58.58;96568.22;4972080;28;20073;-83
2022/10/07 06:03:19;;;;;;;9.93;4.80;;;;;;;11.78;58.88;96568.13;4957214;28;20057;-82
2022/10/07 06:05:45;;;;;;;10.13;5.47;;;;;;;11.93;59.22;96574.59;4972460;28;20054;-82
2022/10/07 06:08:11;;;;;;;12.23;5.28;;;;;;;12.01;58.97;96573.00;4972617;28;20022;-82
2022/10/07 06:13:22;;;;;;;9.65;5.22;;;;;;;12.32;58.41;96575.22;4975288;28;20521;-81
2022/10/07 06:15:48;;;;;;;7.28;4.85;;;;;;;12.45;58.35;96578.31;4990480;28;20026;-81
2022/10/07 06:18:14;;;;;;;10.27;4.55;;;;;;;12.66;58.10;96579.75;4955974;28;20031;-81
2022/10/07 06:20:39;;;;;;;10.88;5.00;;;;;;;12.81;57.94;96581.81;4956538;28;20036;-81
2022/10/07 06:23:06;;;;;;;10.80;5.30;;;;;;;12.95;57.25;96589.28;4972263;28;20034;-81
2022/10/07 06:25:32;;;;;;;11.93;6.18;;;;;;;13.03;56.95;96593.84;4989734;28;20110;-80
2022/10/07 06:27:58;;;;;;;11.45;5.50;;;;;;;13.11;56.30;96590.31;4972419;28;20075;-81
2022/10/07 06:30:24;;;;;;;9.82;5.22;;;;;;;13.25;56.69;96586.13;4989319;28;20015;-80
2022/10/07 06:32:51;;;;;;;9.85;5.85;;;;;;;13.40;57.00;96589.03;4990537;28;20177;-81
2022/10/07 06:35:16;;;;;;;10.45;5.30;;;;;;;13.45;57.06;96597.47;4989682;28;20405;-81
2022/10/07 06:37:42;;;;;;;10.25;5.95;;;;;;;13.51;56.50;96587.06;4990361;28;20492;-81
2022/10/07 06:40:08;;;;;;;9.05;5.50;;;;;;;13.67;56.19;96595.16;4988635;28;20038;-81
2022/10/07 06:42:33;;;;;;;10.05;5.20;;;;;;;13.34;56.69;96587.88;4989404;28;20057;-81
2022/10/07 06:44:59;;;;;;;9.38;5.60;;;;;;;13.56;56.39;96592.78;4972118;28;20233;-82
2022/10/07 06:47:24;;;;;;;10.82;5.70;;;;;;;13.40;57.14;96589.03;4988834;28;20049;-82
2022/10/07 06:49:50;;;;;;;8.07;5.35;;;;;;;13.62;56.84;96585.91;4956311;28;20034;-83
2022/10/07 06:52:15;;;;;;;8.57;5.43;;;;;;;13.35;57.52;96586.84;4970894;28;20034;-83
2022/10/07 06:54:41;;;;;;;9.52;6.20;;;;;;;13.32;58.00;96591.72;4956323;28;20019;-82
2022/10/07 06:57:06;;;;;;;9.35;5.85;;;;;;;13.60;58.08;96586.06;4955141;28;20077;-83
2022/10/07 06:59:32;;;;;;;11.55;6.00;;;;;;;13.61;57.97;96590.44;4955928;28;20084;-82
2022/10/07 07:01:58;;;;;;;9.00;5.60;;;;;;;13.70;57.54;96584.03;4971435;28;20033;-81
2022/10/07 07:04:24;;;;;;;9.73;6.70;;;;;;;13.44;59.04;96590.41;4988804;28;20126;-82
2022/10/07 07:06:49;;;;;;;12.50;6.40;;;;;;;13.42;58.71;96588.88;4972127;28;20045;-81
2022/10/07 07:09:15;;;;;;;7.05;6.13;;;;;;;13.75;58.08;96582.69;4970953;28;20489;-81
2022/10/07 07:11:42;;;;;;;12.38;5.70;;;;;;;13.76;58.21;96587.06;4955948;28;20532;-82
2022/10/07 07:14:08;;;;;;;10.60;6.00;;;;;;;13.55;59.02;96581.19;4988416;28;20571;-82
2022/10/07 07:16:34;;;;;;;9.65;5.78;;;;;;;13.76;58.16;96581.69;4955913;28;20031;-82
2022/10/07 07:19:01;;;;;;;13.85;5.93;;;;;;;13.60;58.85;96586.06;4971026;28;20026;-81
2022/10/07 07:21:30;;;;;;;7.40;5.40;;;;;;;13.57;58.78;96579.13;4955198;28;20398;-81
2022/10/07 07:23:56;;;;;;;9.38;5.57;;;;;;;13.88;58.31;96580.31;4971881;28;20508;-81
2022/10/07 07:26:22;;;;;;;9.35;5.60;;;;;;;14.36;57.54;96571.50;4970747;28;20046;-81
2022/10/07 07:28:58;;;;;;;8.85;5.32;;;;;;;14.59;56.28;96565.31;4989083;28;20033;-81
2022/10/07 07:31:24;;;;;;;9.30;5.20;;;;;;;14.89;56.04;96572.84;4987899;28;20030;-82
2022/10/07 07:33:51;;;;;;;11.15;5.45;;;;;;;14.98;55.15;96573.66;4971716;28;20041;-81
2022/10/07 07:36:17;;;;;;;10.02;5.47;;;;;;;15.14;54.97;96564.56;4988097;28;20030;-82
2022/10/07 07:38:50;;;;;;;10.52;4.93;;;;;;;15.34;54.54;96562.28;4971163;28;20061;-82
2022/10/07 07:41:15;;;;;;;10.23;4.43;;;;;;;15.65;53.38;96563.22;4972164;28;20504;-82
2022/10/07 07:43:40;;;;;;;16.73;4.85;;;;;;;15.77;53.05;96563.63;4970856;28;20061;-83
2022/10/07 07:46:06;;;;;;;17.58;5.50;;;;;;;15.75;52.75;96563.00;4989192;28;20470;-81
2022/10/07 07:48:31;;;;;;;10.02;4.68;;;;;;;16.13;51.44;96568.41;4969963;28;20047;-81
2022/10/07 07:50:57;;;;;;;21.92;4.97;;;;;;;16.23;51.43;96557.34;4971315;28;20084;-82
2022/10/07 07:53:22;;;;;;;18.92;4.75;;;;;;;16.29;51.26;96558.44;4987721;28;20026;-82
2022/10/07 07:55:54;;;;;;;15.90;4.47;;;;;;;16.42;49.76;96555.94;4988700;28;20018;-82
2022/10/07 07:58:20;;;;;;;14.57;3.85;;;;;;;16.60;49.60;96554.72;4987604;28;20026;-81
2022/10/07 08:00:59;;;;;;;9.30;3.28;;;;;;;16.87;47.12;96555.06;4971038;28;20050;-83
2022/10/07 08:03:25;;;;;;;8.73;2.88;;;;;;;17.00;46.35;96548.97;4970883;28;20026;-82
2022/10/07 08:05:51;;;;;;;5.40;2.17;;;;;;;16.97;45.22;96543.06;4986676;28;20026;-82
2022/10/07 08:08:16;;;;;;;3.95;2.33;;;;;;;17.10;44.19;96537.84;4970894;28;20037;-82
2022/10/07 08:10:42;;;;;;;4.55;2.05;;;;;;;17.02;43.04;96546.06;4987337;28;20401;-82
2022/10/07 08:13:08;;;;;;;5.25;2.45;;;;;;;16.96;43.91;96538.69;4970758;28;20417;-82
2022/10/07 08:15:34;;;;;;;4.10;2.17;;;;;;;17.05;44.73;96541.09;4970320;28;20029;-82
2022/10/07 08:18:00;;;;;;;6.65;2.00;;;;;;;17.09;44.33;96530.72;4987653;28;20281;-82
2022/10/07 08:20:25;;;;;;;7.63;2.78;;;;;;;17.27;43.97;96527.59;4987632;28;20041;-81
2022/10/07 08:22:50;;;;;;;6.93;3.13;;;;;;;17.40;43.43;96531.47;4987402;28;20566;-81
2022/10/07 08:25:16;;;;;;;6.90;3.53;;;;;;;17.40;43.84;96521.47;4988135;28;20478;-80
2022/10/07 08:27:42;;;;;;;7.53;3.40;;;;;;;17.42;43.46;96524.00;4986899;28;20481;-81
2022/10/07 08:30:08;;;;;;;7.63;3.83;;;;;;;17.57;42.22;96521.22;4970903;28;20030;-80
2022/10/07 08:32:33;;;;;;;5.43;3.55;;;;;;;17.48;43.06;96515.06;4986712;28;20049;-82
2022/10/07 08:34:59;;;;;;;4.80;2.80;;;;;;;17.42;42.76;96511.28;4970168;28;20030;-81
2022/10/07 08:37:24;;;;;;;10.35;2.90;;;;;;;17.46;43.58;96503.56;4987442;28;20421;-81
2022/10/07 08:39:49;;;;;;;7.10;3.22;;;;;;;17.59;43.97;96502.84;4953441;28;20030;-82
2022/10/07 08:42:26;;;;;;;5.22;2.85;;;;;;;17.67;43.25;96512.72;4988139;28;20026;-81
2022/10/07 08:44:52;;;;;;;7.93;2.50;;;;;;;17.75;42.38;96512.59;4953317;28;20564;-80
2022/10/07 08:47:33;;;;;;;11.57;2.30;;;;;;;17.72;41.17;96506.72;4970377;28;20030;-80
2022/10/07 08:50:08;;;;;;;4.90;2.20;;;;;;;17.48;42.36;96509.66;4987015;28;20632;-80
2022/10/07 08:52:37;;;;;;;7.93;2.58;;;;;;;17.59;43.39;96497.44;4987129;28;20113;-81
2022/10/07 08:55:20;;;;;;;4.13;2.20;;;;;;;17.52;41.98;96496.53;4987221;28;20018;-80
2022/10/07 08:58:04;;;;;;;;;;;;;;;17.56;41.59;96492.41;4955173;28;20045;-82
2022/10/07 09:00:39;;;;;;;10.70;2.20;;;;;;;17.48;42.26;96497.94;4970131;28;20261;-82
2022/10/07 09:03:10;;;;;;;5.72;2.95;;;;;;;17.46;42.66;96484.59;4969405;28;20113;-82
2022/10/07 09:05:37;;;;;;;9.10;2.67;;;;;;;17.57;42.60;96488.66;4969988;28;20026;-82
2022/10/07 09:08:05;;;;;;;4.45;2.50;;;;;;;17.74;43.07;96474.81;4954078;28;20026;-80
2022/10/07 09:10:48;;;;;;;7.50;3.00;;;;;;;17.71;41.95;96467.06;4953260;28;20121;-82
2022/10/07 09:13:27;;;;;;;;;;;;;;;17.84;43.07;96467.16;4939330;28;20079;-81
2022/10/07 09:16:06;;;;;;;5.82;2.50;;;;;;;17.81;42.25;96464.84;4985932;28;20398;-83
2022/10/07 09:18:52;;;;;;;4.75;2.88;;;;;;;17.78;41.37;96459.81;4987026;28;20022;-82
2022/10/07 09:21:35;;;;;;;8.77;2.50;;;;;;;17.73;43.06;96465.00;4938140;28;20050;-81
2022/10/07 09:24:19;;;;;;;12.35;2.63;;;;;;;17.90;42.84;96460.09;4953044;28;20034;-83
2022/10/07 09:26:45;;;;;;;4.97;2.15;;;;;;;17.98;41.89;96450.97;4969575;28;20033;-81
2022/10/07 09:29:11;;;;;;;7.68;2.40;;;;;;;18.03;42.17;96448.50;4969055;28;20027;-81
2022/10/07 09:31:37;;;;;;;3.40;2.40;;;;;;;18.02;41.71;96446.81;4969389;28;20030;-81
2022/10/07 09:34:03;;;;;;;13.82;2.88;;;;;;;17.92;42.20;96449.91;4969283;28;20023;-80
2022/10/07 09:36:28;;;;;;;5.38;2.22;;;;;;;18.00;42.50;96449.75;4952824;28;20434;-83
2022/10/07 09:38:54;;;;;;;10.68;2.30;;;;;;;18.15;42.10;96444.19;4937120;28;20524;-80
2022/10/07 09:41:19;;;;;;;6.65;2.30;;;;;;;18.15;41.22;96446.91;4986153;28;20023;-81
2022/10/07 09:43:53;;;;;;;4.55;1.92;;;;;;;18.21;41.21;96447.16;4969593;28;20034;-80
2022/10/07 09:46:40;;;;;;;5.63;2.30;;;;;;;18.30;41.75;96443.22;4986032;28;20031;-82
2022/10/07 09:49:06;;;;;;;5.15;2.33;;;;;;;18.31;41.34;96439.50;4968580;28;20065;-80
2022/10/07 09:51:33;;;;;;;6.07;2.00;;;;;;;18.31;42.16;96434.06;4953424;28;20081;-80
2022/10/07 09:54:03;;;;;;;3.55;1.75;;;;;;;18.41;41.62;96422.81;4968677;28;20034;-80
2022/10/07 09:56:37;;;;;;;3.47;1.95;;;;;;;18.55;38.37;96423.72;4987862;28;20027;-80
2022/10/07 09:59:19;;;;;;;4.55;1.98;;;;;;;18.50;37.91;96429.75;4969121;28;20040;-81
2022/10/07 10:01:48;;;;;;;4.60;1.50;;;;;;;18.40;36.57;96424.69;4986540;28;20603;-81
2022/10/07 10:04:15;;;;;;;3.75;1.50;;;;;;;18.34;38.27;96425.50;4986130;28;20059;-80
2022/10/07 10:06:48;;;;;;;4.93;1.52;;;;;;;18.47;38.59;96422.03;4968767;28;20034;-81
2022/10/07 10:09:14;;;;;;;;;;;;;;;18.45;37.88;96412.38;4953715;28;20027;-80
2022/10/07 10:11:39;;;;;;;4.75;1.80;;;;;;;18.40;37.95;96405.69;4952338;28;20370;-80
2022/10/07 10:14:32;;;;;;;5.45;1.50;;;;;;;18.46;38.91;96404.03;4969585;28;20338;-80
2022/10/07 10:16:58;;;;;;;3.63;1.80;;;;;;;18.56;38.33;96408.22;4968439;28;20046;-81
2022/10/07 10:19:25;;;;;;;8.50;1.90;;;;;;;18.51;38.54;96400.69;4968565;28;20039;-80
2022/10/07 10:21:55;;;;;;;2.47;1.48;;;;;;;18.56;37.81;96400.09;4953039;28;20505;-81
2022/10/07 10:26:24;;;;;;;3.72;1.58;;;;;;;18.60;37.61;96398.66;4952348;28;20049;-80
2022/10/07 10:27:20;;;;;;;2.67;1.67;;;;;;;18.51;37.10;96400.69;4958667;28;20038;-82
2022/10/07 10:29:55;;;;;;;5.65;1.60;;;;;;;18.50;37.65;96393.59;4971884;28;20442;-80
2022/10/07 10:32:42;;;;;;;3.13;1.63;;;;;;;18.57;36.77;96386.28;4941007;28;20026;-81
2022/10/07 10:35:30;;;;;;;3.13;1.50;;;;;;;18.64;37.25;96394.47;4989870;28;20031;-80
2022/10/07 10:38:18;;;;;;;4.40;1.65;;;;;;;18.64;37.26;96383.59;4989048;28;20472;-80
2022/10/07 10:40:44;;;;;;;3.33;1.42;;;;;;;18.69;37.09;96388.41;4976712;28;20425;-80
2022/10/07 10:43:21;;;;;;;7.22;2.40;;;;;;;18.78;37.35;96377.16;4989371;28;20034;-81
2022/10/07 10:45:50;;;;;;;9.75;1.92;;;;;;;18.91;37.65;96372.78;4955402;28;20149;-81
2022/10/07 10:48:30;;;;;;;5.55;1.52;;;;;;;19.01;37.44;96367.78;4971871;28;20572;-81
2022/10/07 10:51:30;;;;;;;3.45;1.75;;;;;;;19.05;36.50;96364.66;4971742;28;20023;-81
2022/10/07 10:54:17;;;;;;;4.28;1.50;;;;;;;19.04;35.88;96355.66;4972668;28;20207;-81
2022/10/07 10:57:04;;;;;;;2.53;1.30;;;;;;;19.05;35.33;96351.91;4989863;28;20473;-81
2022/10/07 10:59:42;;;;;;;3.90;1.40;;;;;;;19.02;36.30;96353.13;4988272;28;20137;-81
2022/10/07 11:02:35;;;;;;;2.65;1.33;;;;;;;19.15;36.38;96352.34;4972332;28;20034;-81
2022/10/07 11:05:12;;;;;;;4.18;1.60;;;;;;;19.16;35.24;96339.59;4989168;28;20089;-82
2022/10/07 11:07:44;;;;;;;19.52;1.88;;;;;;;19.27;34.89;96346.28;4956131;28;20121;-81
2022/10/07 11:10:26;;;;;;;7.30;1.58;;;;;;;19.30;35.23;96342.31;4989468;28;20486;-80
2022/10/07 11:12:57;;;;;;;3.20;1.40;;;;;;;19.35;34.24;96329.75;4955414;28;20034;-81
2022/10/07 11:15:32;;;;;;;4.55;1.50;;;;;;;19.38;33.15;96334.75;4955405;28;20038;-81
2022/10/07 11:18:00;;;;;;;2.70;1.00;;;;;;;19.47;32.14;96320.94;4988924;28;20022;-81
2022/10/07 11:20:34;;;;;;;2.50;1.42;;;;;;;19.38;32.45;96321.16;4954553;28;20081;-81
2022/10/07 11:23:20;;;;;;;3.15;1.60;;;;;;;19.45;33.34;96323.03;4971801;28;20424;-81
2022/10/07 11:26:28;;;;;;;2.45;1.10;;;;;;;19.44;33.71;96324.09;4972978;28;20515;-81
2022/10/07 11:28:53;;;;;;;3.25;1.30;;;;;;;19.46;33.79;96313.84;4988070;28;20026;-80
2022/10/07 11:31:25;;;;;;;6.05;1.95;;;;;;;19.60;33.94;96314.66;4954723;28;20046;-80
2022/10/07 11:34:12;;;;;;;2.97;1.42;;;;;;;19.64;34.31;96308.56;4954726;28;20026;-81
2022/10/07 11:37:15;;;;;;;3.92;1.40;;;;;;;19.87;33.64;96309.97;4972339;28;20026;-81
2022/10/07 11:39:41;;;;;;;11.85;1.85;;;;;;;19.82;32.69;96309.75;4988125;28;20034;-82
2022/10/07 11:42:25;;;;;;;5.90;1.45;;;;;;;19.78;32.60;96300.34;4987864;28;20085;-81
2022/10/07 11:45:07;;;;;;;5.00;1.33;;;;;;;19.79;33.00;96306.63;4974034;28;20485;-81
2022/10/07 11:47:40;;;;;;;3.65;1.33;;;;;;;19.81;33.75;96299.94;4969816;28;20057;-82
2022/10/07 11:50:09;;;;;;;3.95;1.30;;;;;;;19.92;33.87;96297.59;4954965;28;20406;-82
2022/10/07 11:52:39;;;;;;;3.72;1.48;;;;;;;19.96;32.68;96290.63;4954698;28;20033;-82